createdAt,value
2019-01-09T00:00:16.856Z,85.01
2019-01-09T00:02:46.146Z,84.95
2019-01-09T00:05:15.514Z,85.02
2019-01-09T00:07:44.801Z,85.17
2019-01-09T00:10:14.522Z,84.95
2019-01-09T00:12:43.816Z,84.49
2019-01-09T00:15:13.286Z,85.30
2019-01-09T00:17:42.586Z,85.04
2019-01-09T00:20:12.225Z,85.40
2019-01-09T00:22:41.567Z,85.51
2019-01-09T00:25:11.205Z,84.64
2019-01-09T00:27:40.489Z,84.73
2019-01-09T00:35:39.795Z,84.85
2019-01-09T00:38:09.323Z,84.34
2019-01-09T00:40:58.047Z,84.30
2019-01-09T00:46:02.627Z,84.35
2019-01-09T00:48:32.077Z,84.20
2019-01-09T00:51:01.428Z,84.45
2019-01-09T00:53:30.776Z,84.39
2019-01-09T00:56:00.055Z,83.94
2019-01-09T00:58:29.366Z,83.96
2019-01-09T01:00:58.709Z,83.61
2019-01-09T01:04:05.996Z,84.31
2019-01-09T01:10:40.900Z,84.20
2019-01-09T01:13:48.199Z,83.86
2019-01-09T01:16:55.702Z,84.59
2019-01-09T01:19:52.706Z,84.58
2019-01-09T01:23:00.224Z,84.48
2019-01-09T01:26:10.470Z,83.45
2019-01-09T01:29:17.798Z,83.29
2019-01-09T01:32:25.109Z,82.98
2019-01-09T01:35:17.854Z,83.55
2019-01-09T01:38:28.019Z,82.52
2019-01-09T01:41:35.326Z,82.61
2019-01-09T01:44:15.034Z,82.95
2019-01-09T01:47:22.330Z,82.76
2019-01-09T01:50:16.244Z,82.55
2019-01-09T01:52:55.061Z,82.69
2019-01-09T01:56:02.366Z,82.45
2019-01-09T01:58:54.447Z,82.54
2019-01-09T02:02:10.663Z,82.67
2019-01-09T02:05:12.259Z,82.63
2019-01-09T02:11:28.747Z,82.18
2019-01-09T02:14:20.765Z,82.71
2019-01-09T02:17:28.066Z,82.37
2019-01-09T02:20:38.225Z,82.27
2019-01-09T02:23:45.525Z,82.06
2019-01-09T02:26:41.422Z,82.18
2019-01-09T02:29:48.951Z,82.02
2019-01-09T02:32:37.288Z,81.61
2019-01-09T02:35:06.703Z,81.55
2019-01-09T02:37:35.986Z,81.31
2019-01-09T02:40:05.711Z,80.56
2019-01-09T02:42:35.000Z,80.98
2019-01-09T02:47:59.387Z,80.70
2019-01-09T02:50:28.666Z,81.11
2019-01-09T02:52:58.374Z,80.40
2019-01-09T02:55:27.687Z,80.82
2019-01-09T02:57:57.366Z,80.36
2019-01-09T03:00:28.251Z,80.83
2019-01-09T03:05:45.881Z,80.65
2019-01-09T03:08:15.171Z,81.08
2019-01-09T03:10:44.432Z,81.18
2019-01-09T03:13:13.766Z,80.05
2019-01-09T03:15:43.197Z,80.64
2019-01-09T03:18:12.523Z,80.42
2019-01-09T03:23:16.262Z,80.46
2019-01-09T03:25:45.571Z,80.39
2019-01-09T03:28:15.198Z,80.60
2019-01-09T03:30:44.519Z,80.07
2019-01-09T03:33:14.121Z,80.63
2019-01-09T03:35:43.402Z,80.41
2019-01-09T03:40:47.733Z,80.78
2019-01-09T03:43:17.084Z,81.33
2019-01-09T03:48:34.950Z,81.03
2019-01-09T03:51:04.231Z,81.11
2019-01-09T03:53:33.910Z,81.20
2019-01-09T03:56:03.245Z,80.96
2019-01-09T03:58:32.637Z,81.23
2019-01-09T04:01:20.989Z,80.97
2019-01-09T04:03:50.322Z,81.45
2019-01-09T04:06:19.740Z,80.67
2019-01-09T04:08:49.045Z,80.54
2019-01-09T04:11:18.393Z,81.13
2019-01-09T04:13:47.681Z,80.51
2019-01-09T04:16:17.015Z,80.83
2019-01-09T04:18:46.339Z,81.09
2019-01-09T04:21:15.698Z,81.16
2019-01-09T04:23:45.033Z,81.29
2019-01-09T04:26:14.354Z,81.24
2019-01-09T04:28:43.698Z,80.67
2019-01-09T04:31:13.002Z,80.84
2019-01-09T04:33:42.363Z,80.63
2019-01-09T04:38:59.911Z,80.81
2019-01-09T04:41:29.256Z,80.88
2019-01-09T04:43:58.594Z,81.10
2019-01-09T04:46:46.898Z,80.99
2019-01-09T04:51:51.886Z,80.90
2019-01-09T04:54:21.354Z,81.02
2019-01-09T04:56:50.770Z,80.71
2019-01-09T04:59:20.072Z,80.73
2019-01-09T05:01:49.542Z,81.02
2019-01-09T05:04:18.837Z,80.84
2019-01-09T05:06:48.267Z,80.76
2019-01-09T05:09:17.538Z,80.79
2019-01-09T05:11:47.083Z,80.68
2019-01-09T05:14:16.418Z,81.21
2019-01-09T05:16:46.049Z,81.00
2019-01-09T05:19:15.404Z,80.92
2019-01-09T05:21:44.746Z,81.38
2019-01-09T05:24:14.045Z,81.78
2019-01-09T05:26:43.509Z,81.35
2019-01-09T05:29:12.800Z,81.49
2019-01-09T05:31:42.253Z,81.63
2019-01-09T05:34:11.608Z,81.13
2019-01-09T05:36:41.285Z,81.32
2019-01-09T05:39:39.414Z,81.22
2019-01-09T05:42:02.065Z,81.49
2019-01-09T05:44:31.480Z,81.33
2019-01-09T05:47:00.815Z,81.10
2019-01-09T05:49:30.601Z,81.14
2019-01-09T05:51:59.872Z,81.17
2019-01-09T05:54:29.195Z,81.20
2019-01-09T05:56:58.506Z,80.81
2019-01-09T05:59:28.069Z,81.26
2019-01-09T06:01:57.358Z,81.23
2019-01-09T06:04:26.768Z,81.15
2019-01-09T06:07:18.549Z,80.92
2019-01-09T06:09:46.067Z,81.03
2019-01-09T06:12:15.410Z,81.50
2019-01-09T06:14:44.681Z,80.99
2019-01-09T06:17:14.192Z,80.79
2019-01-09T06:19:43.562Z,80.50
2019-01-09T06:22:13.406Z,80.83
2019-01-09T06:24:43.065Z,80.93
2019-01-09T06:27:15.091Z,81.08
2019-01-09T06:30:06.328Z,81.17
2019-01-09T06:32:36.360Z,81.20
2019-01-09T06:35:05.698Z,81.35
2019-01-09T06:38:14.681Z,81.23
2019-01-09T06:40:44.291Z,81.17
2019-01-09T06:43:14.145Z,81.37
2019-01-09T06:45:44.036Z,81.51
2019-01-09T06:48:13.867Z,81.44
2019-01-09T06:51:22.656Z,81.32
2019-01-09T06:54:11.462Z,81.16
2019-01-09T06:56:41.997Z,81.08
2019-01-09T06:59:11.819Z,81.16
2019-01-09T07:04:29.567Z,81.45
2019-01-09T07:06:58.899Z,81.57
2019-01-09T07:09:28.305Z,81.68
2019-01-09T07:11:57.614Z,81.92
2019-01-09T07:14:26.903Z,81.72
2019-01-09T07:22:12.096Z,81.76
2019-01-09T07:24:41.536Z,81.37
2019-01-09T07:27:11.059Z,81.34
2019-01-09T07:29:40.356Z,81.55
2019-01-09T07:32:09.802Z,81.67
2019-01-09T07:34:39.114Z,81.46
2019-01-09T07:37:08.677Z,80.90
2019-01-09T07:39:37.971Z,80.97
2019-01-09T07:42:07.374Z,80.87
2019-01-09T07:44:36.761Z,80.98
2019-01-09T07:47:06.176Z,80.80
2019-01-09T07:49:35.627Z,80.57
2019-01-09T07:52:05.227Z,80.91
2019-01-09T07:54:53.710Z,80.87
2019-01-09T07:57:23.005Z,80.56
2019-01-09T08:00:11.308Z,80.53
2019-01-09T08:02:40.742Z,80.76
2019-01-09T08:05:10.050Z,80.62
2019-01-09T08:07:39.343Z,80.83
2019-01-09T08:10:10.125Z,80.82
2019-01-09T08:15:33.016Z,80.47
2019-01-09T08:18:02.320Z,80.32
2019-01-09T08:20:31.597Z,80.10
2019-01-09T08:23:00.887Z,80.08
2019-01-09T08:25:30.409Z,80.40
2019-01-09T08:27:59.697Z,80.38
2019-01-09T08:30:29.312Z,80.10
2019-01-09T08:32:58.627Z,80.07
2019-01-09T08:35:28.198Z,80.52
2019-01-09T08:40:32.503Z,80.78
2019-01-09T08:45:38.269Z,80.37
2019-01-09T08:48:07.554Z,80.81
2019-01-09T08:53:12.140Z,81.04
2019-01-09T08:55:41.429Z,80.97
2019-01-09T08:58:11.038Z,80.69
2019-01-09T09:00:40.335Z,80.93
2019-01-09T09:05:58.301Z,81.01
2019-01-09T09:11:36.389Z,81.21
2019-01-09T09:14:26.158Z,81.14
2019-01-09T09:17:07.490Z,81.52
2019-01-09T09:19:48.507Z,81.51
2019-01-09T09:22:17.781Z,81.37
2019-01-09T09:24:47.474Z,81.57
2019-01-09T09:27:35.770Z,81.63
2019-01-09T09:33:19.767Z,81.66
2019-01-09T09:35:49.062Z,81.61
2019-01-09T09:38:20.744Z,81.41
2019-01-09T09:40:49.447Z,81.22
2019-01-09T09:43:18.729Z,81.29
2019-01-09T09:45:48.003Z,81.52
2019-01-09T09:48:17.330Z,81.36
2019-01-09T09:50:46.664Z,81.41
2019-01-09T09:53:15.964Z,81.20
2019-01-09T09:55:45.251Z,81.03
2019-01-09T09:58:14.679Z,80.93
2019-01-09T10:00:43.961Z,80.90
2019-01-09T10:03:13.232Z,80.95
2019-01-09T10:05:42.573Z,80.69
2019-01-09T10:08:11.885Z,80.45
2019-01-09T10:10:41.196Z,80.33
2019-01-09T10:13:29.560Z,80.46
2019-01-09T10:15:59.096Z,80.52
2019-01-09T10:18:28.417Z,80.00
2019-01-09T10:21:16.785Z,79.80
2019-01-09T10:23:46.165Z,79.96
2019-01-09T10:26:15.488Z,79.41
2019-01-09T10:28:45.180Z,79.59
2019-01-09T10:31:14.473Z,79.23
2019-01-09T10:33:44.050Z,79.11
2019-01-09T10:36:13.385Z,79.20
2019-01-09T10:38:44.564Z,78.87
2019-01-09T10:41:33.118Z,78.61
2019-01-09T10:44:21.372Z,78.61
2019-01-09T10:49:25.590Z,78.79
2019-01-09T10:51:55.126Z,77.27
2019-01-09T10:54:24.438Z,77.29
2019-01-09T10:56:53.811Z,77.40
2019-01-09T10:59:23.200Z,77.34
2019-01-09T11:01:52.766Z,77.69
2019-01-09T11:04:22.046Z,77.34
2019-01-09T11:06:51.748Z,77.55
2019-01-09T11:09:21.079Z,77.52
2019-01-09T11:11:50.447Z,77.75
2019-01-09T11:14:19.773Z,77.53
2019-01-09T11:16:49.400Z,77.41
2019-01-09T11:19:18.730Z,78.11
2019-01-09T11:21:48.183Z,77.05
2019-01-09T11:24:17.493Z,77.08
2019-01-09T11:26:46.906Z,76.81
2019-01-09T11:29:16.210Z,77.06
2019-01-09T11:31:45.868Z,77.37
2019-01-09T11:34:15.160Z,77.28
2019-01-09T11:36:44.730Z,76.99
2019-01-09T11:39:14.023Z,77.22
2019-01-09T11:41:43.330Z,77.21
2019-01-09T11:44:12.628Z,77.04
2019-01-09T11:46:42.262Z,77.24
2019-01-09T11:49:30.637Z,77.17
2019-01-09T11:52:11.910Z,76.76
2019-01-09T11:54:41.707Z,76.54
2019-01-09T11:57:12.230Z,75.97
2019-01-09T11:59:41.672Z,74.28
2019-01-09T12:02:11.070Z,73.17
2019-01-09T12:04:40.356Z,72.89
2019-01-09T12:07:21.732Z,73.79
2019-01-09T12:09:51.038Z,74.80
2019-01-09T12:12:20.333Z,75.18
2019-01-09T12:14:49.681Z,75.17
2019-01-09T12:17:19.189Z,75.73
2019-01-09T12:20:07.490Z,75.79
2019-01-09T12:22:36.776Z,75.27
2019-01-09T12:25:07.493Z,75.61
2019-01-09T12:27:36.856Z,76.32
2019-01-09T12:33:20.972Z,75.83
2019-01-09T12:35:50.317Z,75.72
2019-01-09T12:38:19.590Z,75.71
2019-01-09T12:41:07.957Z,75.75
2019-01-09T12:43:37.233Z,75.89
2019-01-09T12:46:25.581Z,76.05
2019-01-09T12:48:55.257Z,76.29
2019-01-09T12:51:24.538Z,76.72
2019-01-09T12:53:54.056Z,76.33
2019-01-09T12:56:27.580Z,76.24
2019-01-09T13:01:53.310Z,76.73
2019-01-09T13:04:24.148Z,76.51
2019-01-09T13:10:04.487Z,76.89
2019-01-09T13:12:55.776Z,76.90
2019-01-09T13:15:28.304Z,77.36
2019-01-09T13:21:08.330Z,77.34
2019-01-09T13:23:37.683Z,77.20
2019-01-09T13:26:27.164Z,77.67
2019-01-09T13:29:07.811Z,77.92
2019-01-09T13:39:48.954Z,77.61
2019-01-09T13:42:40.352Z,77.48
2019-01-09T13:45:12.470Z,77.74
2019-01-09T13:47:44.176Z,77.51
2019-01-09T13:50:14.065Z,77.66
2019-01-09T13:53:02.592Z,77.00
2019-01-09T13:55:33.346Z,77.18
2019-01-09T13:58:06.118Z,76.88
2019-01-09T14:00:54.859Z,77.09
2019-01-09T14:04:02.457Z,77.26
2019-01-09T14:06:51.854Z,77.49
2019-01-09T14:09:40.623Z,77.37
2019-01-09T14:12:31.897Z,77.39
2019-01-09T14:18:20.918Z,77.59
2019-01-09T14:20:50.209Z,77.78
2019-01-09T14:23:19.741Z,77.96
2019-01-09T14:25:49.098Z,77.82
2019-01-09T14:28:18.364Z,77.90
2019-01-09T14:30:47.677Z,78.18
2019-01-09T14:33:17.066Z,77.88
2019-01-09T14:35:46.452Z,77.76
2019-01-09T14:38:15.888Z,78.37
2019-01-09T14:40:45.220Z,78.38
2019-01-09T14:43:14.688Z,78.53
2019-01-09T14:45:43.963Z,78.73
2019-01-09T14:48:13.389Z,78.61
2019-01-09T14:50:42.661Z,78.61
2019-01-09T14:53:12.010Z,78.56
2019-01-09T14:55:41.528Z,78.74
2019-01-09T14:58:10.933Z,78.83
2019-01-09T15:00:40.201Z,78.96
2019-01-09T15:03:09.500Z,79.16
2019-01-09T15:05:38.872Z,79.16
2019-01-09T15:08:08.171Z,79.17
2019-01-09T15:10:37.702Z,79.04
2019-01-09T15:13:07.043Z,79.26
2019-01-09T15:15:36.431Z,79.22
2019-01-09T15:18:06.271Z,79.31
2019-01-09T15:20:35.594Z,79.73
2019-01-09T15:23:04.929Z,79.82
2019-01-09T15:25:34.499Z,79.79
2019-01-09T15:30:38.940Z,80.08
2019-01-09T15:33:08.316Z,80.18
2019-01-09T15:35:37.697Z,80.30
2019-01-09T15:38:07.521Z,80.36
2019-01-09T15:40:36.842Z,80.49
2019-01-09T15:43:06.374Z,80.59
2019-01-09T15:45:35.663Z,80.50
2019-01-09T15:48:05.439Z,80.44
2019-01-09T15:50:34.722Z,80.57
2019-01-09T15:53:04.472Z,80.64
2019-01-09T15:55:33.848Z,80.80
2019-01-09T15:58:03.279Z,80.69
2019-01-09T16:00:53.331Z,80.79
2019-01-09T16:03:22.655Z,81.24
2019-01-09T16:05:52.311Z,81.24
2019-01-09T16:08:21.607Z,81.31
2019-01-09T16:10:51.032Z,81.29
2019-01-09T16:13:20.333Z,81.29
2019-01-09T16:18:25.307Z,81.29
2019-01-09T16:20:54.656Z,81.35
2019-01-09T16:23:24.147Z,81.43
2019-01-09T16:25:53.452Z,81.42
2019-01-09T16:28:23.059Z,81.45
2019-01-09T16:31:13.479Z,81.58
2019-01-09T16:33:42.794Z,81.79
2019-01-09T16:36:12.252Z,81.94
2019-01-09T16:38:41.553Z,82.19
2019-01-09T16:41:10.997Z,82.37
2019-01-09T16:43:40.292Z,82.42
2019-01-09T16:46:28.681Z,82.28
2019-01-09T16:48:58.231Z,82.47
2019-01-09T16:51:27.590Z,82.36
2019-01-09T16:53:56.980Z,82.28
2019-01-09T16:56:26.328Z,82.40
2019-01-09T16:58:55.933Z,82.48
2019-01-09T17:01:25.545Z,82.26
2019-01-09T17:04:13.929Z,82.27
2019-01-09T17:06:43.584Z,82.40
2019-01-09T17:12:01.178Z,82.42
2019-01-09T17:14:30.788Z,82.42
2019-01-09T17:17:19.134Z,82.45
2019-01-09T17:22:36.780Z,82.17
2019-01-09T17:25:07.283Z,82.07
2019-01-09T17:27:36.611Z,82.44
2019-01-09T17:30:09.593Z,82.41
2019-01-09T17:32:38.934Z,82.30
2019-01-09T17:35:27.290Z,82.37
2019-01-09T17:38:16.178Z,82.13
2019-01-09T17:41:04.918Z,82.26
2019-01-09T17:43:34.250Z,82.29
2019-01-09T17:46:03.613Z,82.40
2019-01-09T17:48:33.031Z,82.34
2019-01-09T17:51:02.381Z,82.30
2019-01-09T17:56:06.721Z,82.51
2019-01-09T17:58:36.040Z,82.65
2019-01-09T18:01:05.403Z,82.72
2019-01-09T18:03:34.776Z,82.73
2019-01-09T18:06:04.452Z,82.92
2019-01-09T18:08:33.752Z,82.81
2019-01-09T18:11:03.409Z,82.77
2019-01-09T18:13:32.924Z,82.90
2019-01-09T18:16:02.561Z,83.23
2019-01-09T18:18:31.860Z,83.20
2019-01-09T18:21:03.952Z,83.30
2019-01-09T18:23:33.367Z,83.15
2019-01-09T18:26:02.806Z,83.24
2019-01-09T18:28:32.225Z,83.22
2019-01-09T18:31:38.989Z,83.42
2019-01-09T18:34:46.288Z,83.58
2019-01-09T18:37:53.606Z,83.43
2019-01-09T18:40:47.645Z,83.44
2019-01-09T18:43:49.480Z,83.52
2019-01-09T18:46:56.928Z,83.65
2019-01-09T18:49:38.380Z,83.74
2019-01-09T18:52:29.787Z,83.88
2019-01-09T18:54:59.410Z,83.71
2019-01-09T18:57:28.749Z,83.86
2019-01-09T18:59:58.530Z,84.04
2019-01-09T19:02:27.902Z,83.94
2019-01-09T19:04:57.535Z,84.08
2019-01-09T19:07:26.950Z,83.84
2019-01-09T19:09:56.518Z,84.04
2019-01-09T19:15:14.533Z,83.96
2019-01-09T19:17:43.942Z,84.06
2019-01-09T19:20:32.448Z,84.26
2019-01-09T19:23:01.777Z,84.15
2019-01-09T19:25:31.482Z,84.12
2019-01-09T19:28:00.856Z,84.44
2019-01-09T19:30:31.263Z,84.46
2019-01-09T19:33:02.307Z,84.43
2019-01-09T19:35:31.674Z,84.36
2019-01-09T19:38:01.015Z,84.39
2019-01-09T19:40:30.436Z,84.43
2019-01-09T19:42:59.754Z,84.37
2019-01-09T19:45:29.484Z,84.77
2019-01-09T19:47:58.845Z,84.67
2019-01-09T19:50:28.426Z,84.81
2019-01-09T19:52:57.753Z,84.86
2019-01-09T19:55:27.396Z,84.96
2019-01-09T19:57:56.721Z,84.92
2019-01-09T20:00:26.919Z,85.17
2019-01-09T20:02:56.239Z,85.24
2019-01-09T20:05:25.598Z,84.96
2019-01-09T20:07:55.012Z,85.32
2019-01-09T20:10:26.609Z,85.40
2019-01-09T20:12:56.050Z,85.41
2019-01-09T20:15:25.430Z,85.37
2019-01-09T20:18:34.099Z,85.45
2019-01-09T20:23:32.000Z,85.74
2019-01-09T20:26:01.393Z,85.58
2019-01-09T20:28:30.942Z,86.16
2019-01-09T20:31:00.837Z,86.27
2019-01-09T20:33:30.169Z,86.16
2019-01-09T20:36:18.711Z,86.08
2019-01-09T20:38:47.990Z,86.18
2019-01-09T20:41:17.354Z,86.13
2019-01-09T20:43:46.850Z,86.36
2019-01-09T20:46:35.147Z,86.21
2019-01-09T20:52:00.200Z,86.85
2019-01-09T20:54:29.542Z,86.74
2019-01-09T20:59:54.320Z,86.47
2019-01-09T21:02:42.657Z,87.19
2019-01-09T21:05:15.313Z,86.75
2019-01-09T21:07:45.005Z,87.11
2019-01-09T21:10:14.580Z,86.96
2019-01-09T21:12:44.225Z,87.51
2019-01-09T21:15:14.690Z,87.37
2019-01-09T21:17:44.190Z,87.08
2019-01-09T21:20:53.877Z,87.17
2019-01-09T21:23:23.379Z,87.11
2019-01-09T21:25:52.692Z,87.26
2019-01-09T21:28:22.245Z,87.21
2019-01-09T21:30:51.563Z,87.26
2019-01-09T21:33:21.486Z,87.40
2019-01-09T21:35:51.119Z,87.42
2019-01-09T21:38:20.416Z,87.09
2019-01-09T21:40:49.771Z,86.94
2019-01-09T21:43:19.438Z,86.99
2019-01-09T21:45:48.756Z,87.29
2019-01-09T21:48:18.517Z,87.27
2019-01-09T21:51:07.206Z,87.35
2019-01-09T21:53:36.509Z,87.58
2019-01-09T21:56:06.524Z,87.46
2019-01-09T21:58:35.852Z,87.55
2019-01-09T22:01:05.725Z,87.16
2019-01-09T22:03:35.074Z,87.51
2019-01-09T22:06:23.725Z,87.61
2019-01-09T22:08:53.396Z,88.12
2019-01-09T22:11:22.718Z,87.81
2019-01-09T22:13:52.563Z,87.68
2019-01-09T22:16:21.912Z,87.64
2019-01-09T22:21:39.876Z,87.53
2019-01-09T22:24:09.257Z,88.03
2019-01-09T22:26:38.748Z,87.87
2019-01-09T22:29:08.060Z,87.86
2019-01-09T22:34:26.196Z,88.20
2019-01-09T22:36:55.579Z,88.37
2019-01-09T22:39:25.091Z,88.47
2019-01-09T22:41:54.431Z,88.52
2019-01-09T22:44:23.931Z,88.42
2019-01-09T22:46:53.298Z,88.54
2019-01-09T22:49:22.782Z,88.49
2019-01-09T22:51:52.130Z,88.67
2019-01-09T22:54:40.478Z,89.44
2019-01-09T22:57:10.181Z,89.13
2019-01-09T22:59:58.472Z,88.99
2019-01-09T23:02:29.562Z,88.79
2019-01-09T23:04:59.774Z,88.67
2019-01-09T23:07:29.103Z,88.73
2019-01-09T23:09:58.667Z,89.52
2019-01-09T23:12:27.977Z,89.64
2019-01-09T23:14:57.359Z,89.47
2019-01-09T23:17:26.689Z,89.51
2019-01-09T23:19:56.475Z,89.45
2019-01-09T23:22:25.874Z,89.35
2019-01-09T23:24:55.369Z,88.98
2019-01-09T23:27:24.699Z,89.24
2019-01-09T23:29:54.136Z,89.70
2019-01-09T23:32:23.462Z,89.85
2019-01-09T23:34:53.283Z,89.40
2019-01-09T23:37:22.579Z,89.42
2019-01-09T23:39:52.259Z,89.51
2019-01-09T23:42:30.022Z,89.71
2019-01-09T23:44:53.084Z,89.40
2019-01-09T23:47:22.426Z,89.42
2019-01-09T23:49:51.985Z,89.49
2019-01-09T23:52:21.299Z,89.29
2019-01-09T23:54:50.906Z,89.08
2019-01-09T23:57:20.217Z,88.86
2019-01-09T23:59:49.952Z,88.83
